sensor_id;sensor_type;location;lat;lon;timestamp;P1;durP1;ratioP1;P2;durP2;ratioP2
53253;SDS011;75200;53.048;7.552;2024-02-23T00:00:32;0.10;;;0.10;;
53253;SDS011;75200;53.048;7.552;2024-02-23T00:02:58;0.47;;;0.25;;
53253;SDS011;75200;53.048;7.552;2024-02-23T00:05:24;1.15;;;0.43;;
53253;SDS011;75200;53.048;7.552;2024-02-23T00:07:50;0.80;;;0.10;;
53253;SDS011;75200;53.048;7.552;2024-02-23T00:10:16;0.25;;;0.00;;
53253;SDS011;75200;53.048;7.552;2024-02-23T00:12:43;0.47;;;0.10;;
53253;SDS011;75200;53.048;7.552;2024-02-23T00:15:09;0.38;;;0.00;;
53253;SDS011;75200;53.048;7.552;2024-02-23T00:17:35;2.75;;;0.15;;
53253;SDS011;75200;53.048;7.552;2024-02-23T00:20:02;0.70;;;0.00;;
53253;SDS011;75200;53.048;7.552;2024-02-23T00:22:28;1.02;;;0.10;;
53253;SDS011;75200;53.048;7.552;2024-02-23T00:24:55;0.35;;;0.08;;
53253;SDS011;75200;53.048;7.552;2024-02-23T00:27:20;1.02;;;0.10;;
53253;SDS011;75200;53.048;7.552;2024-02-23T00:29:46;1.60;;;0.10;;
53253;SDS011;75200;53.048;7.552;2024-02-23T00:32:13;1.27;;;0.10;;
53253;SDS011;75200;53.048;7.552;2024-02-23T00:34:39;0.38;;;0.17;;
53253;SDS011;75200;53.048;7.552;2024-02-23T00:37:05;1.90;;;0.22;;
53253;SDS011;75200;53.048;7.552;2024-02-23T00:39:33;2.55;;;0.22;;
53253;SDS011;75200;53.048;7.552;2024-02-23T00:41:58;1.17;;;0.10;;
53253;SDS011;75200;53.048;7.552;2024-02-23T00:44:25;3.67;;;0.17;;
53253;SDS011;75200;53.048;7.552;2024-02-23T00:46:51;2.20;;;0.15;;
53253;SDS011;75200;53.048;7.552;2024-02-23T00:49:17;3.15;;;0.52;;
53253;SDS011;75200;53.048;7.552;2024-02-23T00:51:43;0.65;;;0.00;;
53253;SDS011;75200;53.048;7.552;2024-02-23T00:54:10;2.78;;;0.30;;
53253;SDS011;75200;53.048;7.552;2024-02-23T00:56:36;0.70;;;0.10;;
53253;SDS011;75200;53.048;7.552;2024-02-23T00:59:02;0.63;;;0.17;;
53253;SDS011;75200;53.048;7.552;2024-02-23T01:01:28;1.20;;;0.10;;
53253;SDS011;75200;53.048;7.552;2024-02-23T01:03:54;1.95;;;0.28;;
53253;SDS011;75200;53.048;7.552;2024-02-23T01:06:20;0.52;;;0.17;;
53253;SDS011;75200;53.048;7.552;2024-02-23T01:08:47;3.17;;;0.30;;
53253;SDS011;75200;53.048;7.552;2024-02-23T01:11:13;3.50;;;0.30;;
53253;SDS011;75200;53.048;7.552;2024-02-23T01:13:39;1.90;;;0.30;;
53253;SDS011;75200;53.048;7.552;2024-02-23T01:16:05;1.30;;;0.30;;
53253;SDS011;75200;53.048;7.552;2024-02-23T01:18:31;3.55;;;0.47;;
53253;SDS011;75200;53.048;7.552;2024-02-23T01:20:57;1.63;;;0.17;;
53253;SDS011;75200;53.048;7.552;2024-02-23T01:23:23;1.45;;;0.20;;
53253;SDS011;75200;53.048;7.552;2024-02-23T01:25:49;0.52;;;0.10;;
53253;SDS011;75200;53.048;7.552;2024-02-23T01:28:15;0.82;;;0.20;;
53253;SDS011;75200;53.048;7.552;2024-02-23T01:30:41;1.23;;;0.10;;
53253;SDS011;75200;53.048;7.552;2024-02-23T01:33:07;0.47;;;0.10;;
53253;SDS011;75200;53.048;7.552;2024-02-23T01:35:34;0.88;;;0.10;;
53253;SDS011;75200;53.048;7.552;2024-02-23T01:38:01;0.28;;;0.00;;
53253;SDS011;75200;53.048;7.552;2024-02-23T01:40:28;0.05;;;0.00;;
53253;SDS011;75200;53.048;7.552;2024-02-23T01:43:03;0.20;;;0.10;;
53253;SDS011;75200;53.048;7.552;2024-02-23T01:45:30;0.43;;;0.00;;
53253;SDS011;75200;53.048;7.552;2024-02-23T01:47:56;0.20;;;0.10;;
53253;SDS011;75200;53.048;7.552;2024-02-23T01:50:23;2.55;;;0.10;;
53253;SDS011;75200;53.048;7.552;2024-02-23T01:52:49;1.85;;;0.43;;
53253;SDS011;75200;53.048;7.552;2024-02-23T01:55:18;1.98;;;0.30;;
53253;SDS011;75200;53.048;7.552;2024-02-23T01:57:44;1.90;;;0.15;;
53253;SDS011;75200;53.048;7.552;2024-02-23T02:00:11;1.33;;;0.10;;
53253;SDS011;75200;53.048;7.552;2024-02-23T02:02:41;1.10;;;0.13;;
53253;SDS011;75200;53.048;7.552;2024-02-23T02:05:08;1.25;;;0.13;;
53253;SDS011;75200;53.048;7.552;2024-02-23T02:07:34;1.02;;;0.32;;
53253;SDS011;75200;53.048;7.552;2024-02-23T02:10:00;0.68;;;0.20;;
53253;SDS011;75200;53.048;7.552;2024-02-23T02:12:28;1.65;;;0.20;;
53253;SDS011;75200;53.048;7.552;2024-02-23T02:14:55;0.47;;;0.10;;
53253;SDS011;75200;53.048;7.552;2024-02-23T02:17:21;0.55;;;0.10;;
53253;SDS011;75200;53.048;7.552;2024-02-23T02:19:48;1.67;;;0.30;;
53253;SDS011;75200;53.048;7.552;2024-02-23T02:22:14;3.15;;;0.32;;
53253;SDS011;75200;53.048;7.552;2024-02-23T02:24:40;2.45;;;0.50;;
53253;SDS011;75200;53.048;7.552;2024-02-23T02:27:08;1.75;;;0.17;;
53253;SDS011;75200;53.048;7.552;2024-02-23T02:29:35;1.50;;;0.50;;
53253;SDS011;75200;53.048;7.552;2024-02-23T02:32:01;2.78;;;0.45;;
53253;SDS011;75200;53.048;7.552;2024-02-23T02:34:27;3.40;;;0.60;;
53253;SDS011;75200;53.048;7.552;2024-02-23T02:36:54;6.78;;;1.40;;
53253;SDS011;75200;53.048;7.552;2024-02-23T02:39:20;2.08;;;0.40;;
53253;SDS011;75200;53.048;7.552;2024-02-23T02:41:49;4.68;;;0.75;;
53253;SDS011;75200;53.048;7.552;2024-02-23T02:44:15;5.95;;;0.70;;
53253;SDS011;75200;53.048;7.552;2024-02-23T02:46:42;1.92;;;0.40;;
53253;SDS011;75200;53.048;7.552;2024-02-23T02:49:08;3.22;;;0.98;;
53253;SDS011;75200;53.048;7.552;2024-02-23T02:51:34;5.68;;;0.90;;
53253;SDS011;75200;53.048;7.552;2024-02-23T02:54:00;5.03;;;0.88;;
53253;SDS011;75200;53.048;7.552;2024-02-23T02:56:26;9.20;;;1.33;;
53253;SDS011;75200;53.048;7.552;2024-02-23T02:58:52;7.40;;;1.50;;
53253;SDS011;75200;53.048;7.552;2024-02-23T03:01:18;6.28;;;1.30;;
53253;SDS011;75200;53.048;7.552;2024-02-23T03:03:45;8.90;;;1.83;;
53253;SDS011;75200;53.048;7.552;2024-02-23T03:06:11;9.15;;;2.17;;
53253;SDS011;75200;53.048;7.552;2024-02-23T03:08:37;7.93;;;1.65;;
53253;SDS011;75200;53.048;7.552;2024-02-23T03:11:03;9.05;;;2.05;;
53253;SDS011;75200;53.048;7.552;2024-02-23T03:13:29;5.25;;;2.08;;
53253;SDS011;75200;53.048;7.552;2024-02-23T03:15:56;5.15;;;1.50;;
53253;SDS011;75200;53.048;7.552;2024-02-23T03:18:22;6.03;;;2.10;;
53253;SDS011;75200;53.048;7.552;2024-02-23T03:20:49;4.82;;;1.52;;
53253;SDS011;75200;53.048;7.552;2024-02-23T03:23:15;8.98;;;2.28;;
53253;SDS011;75200;53.048;7.552;2024-02-23T03:25:41;8.35;;;2.35;;
53253;SDS011;75200;53.048;7.552;2024-02-23T03:28:07;7.20;;;2.00;;
53253;SDS011;75200;53.048;7.552;2024-02-23T03:30:33;10.77;;;1.90;;
53253;SDS011;75200;53.048;7.552;2024-02-23T03:32:59;9.32;;;2.20;;
53253;SDS011;75200;53.048;7.552;2024-02-23T03:35:26;9.30;;;1.58;;
53253;SDS011;75200;53.048;7.552;2024-02-23T03:37:52;7.63;;;1.63;;
53253;SDS011;75200;53.048;7.552;2024-02-23T03:40:18;7.63;;;1.75;;
53253;SDS011;75200;53.048;7.552;2024-02-23T03:42:44;4.03;;;1.10;;
53253;SDS011;75200;53.048;7.552;2024-02-23T03:45:10;6.97;;;1.17;;
53253;SDS011;75200;53.048;7.552;2024-02-23T03:47:38;1.98;;;0.95;;
53253;SDS011;75200;53.048;7.552;2024-02-23T03:50:05;6.15;;;0.75;;
53253;SDS011;75200;53.048;7.552;2024-02-23T03:52:32;2.42;;;0.77;;
53253;SDS011;75200;53.048;7.552;2024-02-23T03:54:58;4.43;;;1.60;;
53253;SDS011;75200;53.048;7.552;2024-02-23T03:57:25;4.32;;;0.70;;
53253;SDS011;75200;53.048;7.552;2024-02-23T03:59:51;3.60;;;0.65;;
53253;SDS011;75200;53.048;7.552;2024-02-23T04:02:18;0.77;;;0.30;;
53253;SDS011;75200;53.048;7.552;2024-02-23T04:04:44;2.58;;;0.60;;
53253;SDS011;75200;53.048;7.552;2024-02-23T04:07:11;10.40;;;0.80;;
53253;SDS011;75200;53.048;7.552;2024-02-23T04:09:37;5.05;;;1.00;;
53253;SDS011;75200;53.048;7.552;2024-02-23T04:12:03;3.25;;;0.63;;
53253;SDS011;75200;53.048;7.552;2024-02-23T04:14:29;4.85;;;0.88;;
53253;SDS011;75200;53.048;7.552;2024-02-23T04:16:55;2.30;;;0.57;;
53253;SDS011;75200;53.048;7.552;2024-02-23T04:19:21;5.03;;;0.50;;
53253;SDS011;75200;53.048;7.552;2024-02-23T04:21:47;5.03;;;0.55;;
53253;SDS011;75200;53.048;7.552;2024-02-23T04:24:14;8.05;;;1.67;;
53253;SDS011;75200;53.048;7.552;2024-02-23T04:26:40;2.35;;;0.60;;
53253;SDS011;75200;53.048;7.552;2024-02-23T04:29:06;3.80;;;0.60;;
53253;SDS011;75200;53.048;7.552;2024-02-23T04:31:32;6.68;;;0.90;;
53253;SDS011;75200;53.048;7.552;2024-02-23T04:33:58;9.60;;;0.80;;
53253;SDS011;75200;53.048;7.552;2024-02-23T04:36:24;3.80;;;0.57;;
53253;SDS011;75200;53.048;7.552;2024-02-23T04:38:50;2.90;;;0.98;;
53253;SDS011;75200;53.048;7.552;2024-02-23T04:41:19;3.67;;;0.75;;
53253;SDS011;75200;53.048;7.552;2024-02-23T04:43:46;7.60;;;1.58;;
53253;SDS011;75200;53.048;7.552;2024-02-23T04:46:12;5.07;;;0.90;;
53253;SDS011;75200;53.048;7.552;2024-02-23T04:48:38;5.65;;;0.90;;
53253;SDS011;75200;53.048;7.552;2024-02-23T04:51:04;3.97;;;0.70;;
53253;SDS011;75200;53.048;7.552;2024-02-23T04:53:36;5.35;;;0.90;;
53253;SDS011;75200;53.048;7.552;2024-02-23T04:56:02;4.28;;;1.25;;
53253;SDS011;75200;53.048;7.552;2024-02-23T04:58:28;5.50;;;1.52;;
53253;SDS011;75200;53.048;7.552;2024-02-23T05:00:54;5.05;;;1.70;;
53253;SDS011;75200;53.048;7.552;2024-02-23T05:03:21;7.13;;;1.40;;
53253;SDS011;75200;53.048;7.552;2024-02-23T05:05:47;7.18;;;1.45;;
53253;SDS011;75200;53.048;7.552;2024-02-23T05:08:18;4.35;;;2.03;;
53253;SDS011;75200;53.048;7.552;2024-02-23T05:10:46;4.13;;;1.67;;
53253;SDS011;75200;53.048;7.552;2024-02-23T05:13:12;7.40;;;1.83;;
53253;SDS011;75200;53.048;7.552;2024-02-23T05:15:38;5.68;;;1.52;;
53253;SDS011;75200;53.048;7.552;2024-02-23T05:18:05;7.07;;;1.33;;
53253;SDS011;75200;53.048;7.552;2024-02-23T05:20:31;8.10;;;1.48;;
53253;SDS011;75200;53.048;7.552;2024-02-23T05:22:57;5.25;;;1.30;;
53253;SDS011;75200;53.048;7.552;2024-02-23T05:25:23;6.60;;;1.70;;
53253;SDS011;75200;53.048;7.552;2024-02-23T05:27:53;3.67;;;1.20;;
53253;SDS011;75200;53.048;7.552;2024-02-23T05:30:19;5.53;;;1.40;;
53253;SDS011;75200;53.048;7.552;2024-02-23T05:32:45;7.28;;;1.90;;
53253;SDS011;75200;53.048;7.552;2024-02-23T05:35:12;9.98;;;2.00;;
53253;SDS011;75200;53.048;7.552;2024-02-23T05:37:38;6.03;;;2.20;;
53253;SDS011;75200;53.048;7.552;2024-02-23T05:40:04;9.90;;;3.20;;
53253;SDS011;75200;53.048;7.552;2024-02-23T05:42:37;6.40;;;2.70;;
53253;SDS011;75200;53.048;7.552;2024-02-23T05:45:04;5.40;;;1.42;;
53253;SDS011;75200;53.048;7.552;2024-02-23T05:47:34;5.57;;;2.33;;
53253;SDS011;75200;53.048;7.552;2024-02-23T05:50:02;7.55;;;2.17;;
53253;SDS011;75200;53.048;7.552;2024-02-23T05:52:29;7.22;;;2.08;;
53253;SDS011;75200;53.048;7.552;2024-02-23T05:54:55;10.35;;;2.30;;
53253;SDS011;75200;53.048;7.552;2024-02-23T05:57:21;10.23;;;2.80;;
53253;SDS011;75200;53.048;7.552;2024-02-23T05:59:48;9.70;;;3.20;;
53253;SDS011;75200;53.048;7.552;2024-02-23T06:02:14;9.55;;;2.80;;
53253;SDS011;75200;53.048;7.552;2024-02-23T06:04:40;7.95;;;2.88;;
53253;SDS011;75200;53.048;7.552;2024-02-23T06:07:07;7.10;;;2.03;;
53253;SDS011;75200;53.048;7.552;2024-02-23T06:09:33;6.05;;;2.72;;
53253;SDS011;75200;53.048;7.552;2024-02-23T06:11:59;9.90;;;2.33;;
53253;SDS011;75200;53.048;7.552;2024-02-23T06:14:25;7.53;;;2.53;;
53253;SDS011;75200;53.048;7.552;2024-02-23T06:16:52;5.05;;;1.75;;
53253;SDS011;75200;53.048;7.552;2024-02-23T06:19:18;6.70;;;2.10;;
53253;SDS011;75200;53.048;7.552;2024-02-23T06:21:47;7.60;;;2.08;;
53253;SDS011;75200;53.048;7.552;2024-02-23T06:24:14;12.73;;;2.47;;
53253;SDS011;75200;53.048;7.552;2024-02-23T06:26:40;7.50;;;1.75;;
53253;SDS011;75200;53.048;7.552;2024-02-23T06:29:06;9.20;;;2.42;;
53253;SDS011;75200;53.048;7.552;2024-02-23T06:31:36;6.20;;;1.73;;
53253;SDS011;75200;53.048;7.552;2024-02-23T06:34:03;7.72;;;2.80;;
53253;SDS011;75200;53.048;7.552;2024-02-23T06:36:29;7.95;;;2.20;;
53253;SDS011;75200;53.048;7.552;2024-02-23T06:38:55;7.75;;;1.83;;
53253;SDS011;75200;53.048;7.552;2024-02-23T06:41:22;7.57;;;1.85;;
53253;SDS011;75200;53.048;7.552;2024-02-23T06:43:48;6.32;;;2.20;;
53253;SDS011;75200;53.048;7.552;2024-02-23T06:46:14;9.63;;;2.97;;
53253;SDS011;75200;53.048;7.552;2024-02-23T06:48:40;7.38;;;2.90;;
53253;SDS011;75200;53.048;7.552;2024-02-23T06:51:06;9.73;;;2.38;;
53253;SDS011;75200;53.048;7.552;2024-02-23T06:53:36;8.30;;;2.15;;
53253;SDS011;75200;53.048;7.552;2024-02-23T06:56:03;9.38;;;2.00;;
53253;SDS011;75200;53.048;7.552;2024-02-23T06:58:29;12.75;;;2.58;;
53253;SDS011;75200;53.048;7.552;2024-02-23T07:00:55;10.50;;;2.45;;
53253;SDS011;75200;53.048;7.552;2024-02-23T07:03:21;10.02;;;2.05;;
53253;SDS011;75200;53.048;7.552;2024-02-23T07:05:48;10.82;;;2.10;;
53253;SDS011;75200;53.048;7.552;2024-02-23T07:08:15;6.32;;;1.50;;
53253;SDS011;75200;53.048;7.552;2024-02-23T07:10:41;11.45;;;2.20;;
53253;SDS011;75200;53.048;7.552;2024-02-23T07:13:07;12.25;;;2.70;;
53253;SDS011;75200;53.048;7.552;2024-02-23T07:15:34;10.15;;;3.40;;
53253;SDS011;75200;53.048;7.552;2024-02-23T07:18:01;8.95;;;2.42;;
53253;SDS011;75200;53.048;7.552;2024-02-23T07:20:27;6.00;;;1.80;;
53253;SDS011;75200;53.048;7.552;2024-02-23T07:22:53;10.30;;;2.55;;
53253;SDS011;75200;53.048;7.552;2024-02-23T07:25:20;10.55;;;4.07;;
53253;SDS011;75200;53.048;7.552;2024-02-23T07:27:46;3.55;;;1.20;;
53253;SDS011;75200;53.048;7.552;2024-02-23T07:30:14;9.68;;;2.15;;
53253;SDS011;75200;53.048;7.552;2024-02-23T07:32:41;6.47;;;1.50;;
53253;SDS011;75200;53.048;7.552;2024-02-23T07:35:08;9.48;;;2.22;;
53253;SDS011;75200;53.048;7.552;2024-02-23T07:37:34;7.78;;;2.10;;
53253;SDS011;75200;53.048;7.552;2024-02-23T07:40:01;10.45;;;2.30;;
53253;SDS011;75200;53.048;7.552;2024-02-23T07:42:30;8.85;;;2.10;;
53253;SDS011;75200;53.048;7.552;2024-02-23T07:44:56;9.25;;;2.50;;
53253;SDS011;75200;53.048;7.552;2024-02-23T07:47:22;13.20;;;2.20;;
53253;SDS011;75200;53.048;7.552;2024-02-23T07:49:48;8.45;;;1.65;;
53253;SDS011;75200;53.048;7.552;2024-02-23T07:52:15;6.18;;;1.65;;
53253;SDS011;75200;53.048;7.552;2024-02-23T07:54:41;7.00;;;1.77;;
53253;SDS011;75200;53.048;7.552;2024-02-23T07:57:07;8.20;;;1.85;;
53253;SDS011;75200;53.048;7.552;2024-02-23T07:59:33;9.65;;;2.25;;
53253;SDS011;75200;53.048;7.552;2024-02-23T08:02:00;6.25;;;1.88;;
53253;SDS011;75200;53.048;7.552;2024-02-23T08:04:26;6.18;;;1.88;;
53253;SDS011;75200;53.048;7.552;2024-02-23T08:06:52;5.28;;;1.50;;
53253;SDS011;75200;53.048;7.552;2024-02-23T08:09:18;4.07;;;1.15;;
53253;SDS011;75200;53.048;7.552;2024-02-23T08:11:46;2.63;;;1.05;;
53253;SDS011;75200;53.048;7.552;2024-02-23T08:14:12;4.43;;;1.13;;
53253;SDS011;75200;53.048;7.552;2024-02-23T08:16:38;7.50;;;2.25;;
53253;SDS011;75200;53.048;7.552;2024-02-23T08:19:04;4.72;;;1.10;;
53253;SDS011;75200;53.048;7.552;2024-02-23T08:21:30;7.00;;;1.45;;
53253;SDS011;75200;53.048;7.552;2024-02-23T08:23:56;6.05;;;1.50;;
53253;SDS011;75200;53.048;7.552;2024-02-23T08:26:22;7.20;;;1.42;;
53253;SDS011;75200;53.048;7.552;2024-02-23T08:28:48;3.42;;;1.10;;
53253;SDS011;75200;53.048;7.552;2024-02-23T08:31:14;4.00;;;1.20;;
53253;SDS011;75200;53.048;7.552;2024-02-23T08:33:42;5.38;;;0.93;;
53253;SDS011;75200;53.048;7.552;2024-02-23T08:36:08;3.30;;;0.68;;
53253;SDS011;75200;53.048;7.552;2024-02-23T08:38:35;8.50;;;1.33;;
53253;SDS011;75200;53.048;7.552;2024-02-23T08:41:02;4.57;;;0.85;;
53253;SDS011;75200;53.048;7.552;2024-02-23T08:43:28;5.50;;;1.17;;
53253;SDS011;75200;53.048;7.552;2024-02-23T08:45:54;5.70;;;1.13;;
53253;SDS011;75200;53.048;7.552;2024-02-23T08:48:20;4.80;;;1.10;;
53253;SDS011;75200;53.048;7.552;2024-02-23T08:50:46;5.45;;;0.93;;
53253;SDS011;75200;53.048;7.552;2024-02-23T08:53:12;4.13;;;0.77;;
53253;SDS011;75200;53.048;7.552;2024-02-23T08:55:38;8.05;;;1.23;;
53253;SDS011;75200;53.048;7.552;2024-02-23T08:58:04;6.95;;;0.90;;
53253;SDS011;75200;53.048;7.552;2024-02-23T09:00:31;5.63;;;1.15;;
53253;SDS011;75200;53.048;7.552;2024-02-23T09:02:57;3.08;;;0.85;;
53253;SDS011;75200;53.048;7.552;2024-02-23T09:05:23;5.55;;;1.30;;
53253;SDS011;75200;53.048;7.552;2024-02-23T09:07:49;8.43;;;1.50;;
53253;SDS011;75200;53.048;7.552;2024-02-23T09:10:15;3.47;;;1.00;;
53253;SDS011;75200;53.048;7.552;2024-02-23T09:12:43;7.28;;;1.25;;
53253;SDS011;75200;53.048;7.552;2024-02-23T09:15:09;1.27;;;0.45;;
53253;SDS011;75200;53.048;7.552;2024-02-23T09:17:35;5.45;;;0.55;;
53253;SDS011;75200;53.048;7.552;2024-02-23T09:20:01;5.88;;;0.70;;
53253;SDS011;75200;53.048;7.552;2024-02-23T09:22:27;7.95;;;1.42;;
53253;SDS011;75200;53.048;7.552;2024-02-23T09:24:53;4.97;;;1.33;;
53253;SDS011;75200;53.048;7.552;2024-02-23T09:27:21;4.90;;;1.00;;
53253;SDS011;75200;53.048;7.552;2024-02-23T09:29:47;5.47;;;0.80;;
53253;SDS011;75200;53.048;7.552;2024-02-23T09:32:13;7.13;;;1.33;;
53253;SDS011;75200;53.048;7.552;2024-02-23T09:34:40;9.52;;;1.02;;
53253;SDS011;75200;53.048;7.552;2024-02-23T09:37:05;10.25;;;1.27;;
53253;SDS011;75200;53.048;7.552;2024-02-23T09:39:31;5.57;;;0.90;;
53253;SDS011;75200;53.048;7.552;2024-02-23T09:41:58;2.03;;;0.50;;
53253;SDS011;75200;53.048;7.552;2024-02-23T09:44:24;4.82;;;0.70;;
53253;SDS011;75200;53.048;7.552;2024-02-23T09:46:57;5.68;;;0.77;;
53253;SDS011;75200;53.048;7.552;2024-02-23T09:49:24;4.50;;;0.75;;
53253;SDS011;75200;53.048;7.552;2024-02-23T09:51:50;3.80;;;0.85;;
53253;SDS011;75200;53.048;7.552;2024-02-23T09:54:16;4.05;;;0.60;;
53253;SDS011;75200;53.048;7.552;2024-02-23T09:56:42;6.78;;;0.70;;
53253;SDS011;75200;53.048;7.552;2024-02-23T09:59:09;4.65;;;0.47;;
53253;SDS011;75200;53.048;7.552;2024-02-23T10:01:35;2.30;;;0.40;;
53253;SDS011;75200;53.048;7.552;2024-02-23T10:04:02;5.13;;;0.90;;
53253;SDS011;75200;53.048;7.552;2024-02-23T10:06:29;6.65;;;1.42;;
53253;SDS011;75200;53.048;7.552;2024-02-23T10:08:55;9.07;;;1.70;;
53253;SDS011;75200;53.048;7.552;2024-02-23T10:11:22;7.97;;;1.40;;
53253;SDS011;75200;53.048;7.552;2024-02-23T10:13:49;11.82;;;2.40;;
53253;SDS011;75200;53.048;7.552;2024-02-23T10:16:18;7.35;;;1.83;;
53253;SDS011;75200;53.048;7.552;2024-02-23T10:18:48;4.38;;;0.65;;
53253;SDS011;75200;53.048;7.552;2024-02-23T10:21:14;3.83;;;0.40;;
53253;SDS011;75200;53.048;7.552;2024-02-23T10:23:41;5.53;;;0.70;;
53253;SDS011;75200;53.048;7.552;2024-02-23T10:26:07;4.57;;;0.63;;
53253;SDS011;75200;53.048;7.552;2024-02-23T10:28:36;6.22;;;0.85;;
53253;SDS011;75200;53.048;7.552;2024-02-23T10:31:05;4.53;;;0.50;;
53253;SDS011;75200;53.048;7.552;2024-02-23T10:33:32;2.22;;;0.40;;
53253;SDS011;75200;53.048;7.552;2024-02-23T10:35:58;5.28;;;0.65;;
53253;SDS011;75200;53.048;7.552;2024-02-23T10:38:26;3.85;;;0.60;;
53253;SDS011;75200;53.048;7.552;2024-02-23T10:40:55;5.20;;;0.60;;
53253;SDS011;75200;53.048;7.552;2024-02-23T10:43:26;4.30;;;0.63;;
53253;SDS011;75200;53.048;7.552;2024-02-23T10:46:09;5.03;;;0.70;;
53253;SDS011;75200;53.048;7.552;2024-02-23T10:48:39;4.43;;;0.60;;
53253;SDS011;75200;53.048;7.552;2024-02-23T10:51:06;3.72;;;0.40;;
53253;SDS011;75200;53.048;7.552;2024-02-23T10:53:34;3.55;;;0.73;;
53253;SDS011;75200;53.048;7.552;2024-02-23T10:56:00;3.20;;;0.55;;
53253;SDS011;75200;53.048;7.552;2024-02-23T10:58:26;2.08;;;0.30;;
53253;SDS011;75200;53.048;7.552;2024-02-23T11:00:53;5.10;;;0.63;;
53253;SDS011;75200;53.048;7.552;2024-02-23T11:03:26;2.83;;;0.40;;
53253;SDS011;75200;53.048;7.552;2024-02-23T11:05:53;6.40;;;0.45;;
53253;SDS011;75200;53.048;7.552;2024-02-23T11:08:19;4.60;;;0.88;;
53253;SDS011;75200;53.048;7.552;2024-02-23T11:10:49;6.43;;;0.65;;
53253;SDS011;75200;53.048;7.552;2024-02-23T11:13:17;3.13;;;0.40;;
53253;SDS011;75200;53.048;7.552;2024-02-23T11:15:43;5.63;;;0.70;;
53253;SDS011;75200;53.048;7.552;2024-02-23T11:18:22;3.58;;;0.80;;
53253;SDS011;75200;53.048;7.552;2024-02-23T11:20:55;2.67;;;0.40;;
53253;SDS011;75200;53.048;7.552;2024-02-23T11:23:24;5.30;;;0.73;;
53253;SDS011;75200;53.048;7.552;2024-02-23T11:28:49;9.27;;;2.08;;
53253;SDS011;75200;53.048;7.552;2024-02-23T11:31:25;6.65;;;1.00;;
53253;SDS011;75200;53.048;7.552;2024-02-23T11:33:54;2.05;;;0.40;;
53253;SDS011;75200;53.048;7.552;2024-02-23T11:36:34;2.78;;;0.57;;
53253;SDS011;75200;53.048;7.552;2024-02-23T11:39:01;5.65;;;1.20;;
53253;SDS011;75200;53.048;7.552;2024-02-23T11:41:28;2.92;;;0.65;;
53253;SDS011;75200;53.048;7.552;2024-02-23T11:43:55;5.18;;;0.90;;
53253;SDS011;75200;53.048;7.552;2024-02-23T11:46:22;4.80;;;1.00;;
53253;SDS011;75200;53.048;7.552;2024-02-23T11:48:48;4.65;;;0.90;;
53253;SDS011;75200;53.048;7.552;2024-02-23T11:51:23;3.53;;;0.60;;
53253;SDS011;75200;53.048;7.552;2024-02-23T11:56:18;1.80;;;0.30;;
53253;SDS011;75200;53.048;7.552;2024-02-23T11:58:44;8.52;;;0.70;;
53253;SDS011;75200;53.048;7.552;2024-02-23T12:01:10;4.47;;;0.60;;
53253;SDS011;75200;53.048;7.552;2024-02-23T12:03:36;4.35;;;0.45;;
53253;SDS011;75200;53.048;7.552;2024-02-23T12:06:04;4.25;;;0.65;;
53253;SDS011;75200;53.048;7.552;2024-02-23T12:08:32;5.47;;;0.73;;
53253;SDS011;75200;53.048;7.552;2024-02-23T12:11:03;4.65;;;0.70;;
53253;SDS011;75200;53.048;7.552;2024-02-23T12:13:30;4.63;;;0.60;;
53253;SDS011;75200;53.048;7.552;2024-02-23T12:15:57;4.28;;;0.70;;
53253;SDS011;75200;53.048;7.552;2024-02-23T12:18:23;1.70;;;0.40;;
53253;SDS011;75200;53.048;7.552;2024-02-23T12:20:51;2.50;;;0.30;;
53253;SDS011;75200;53.048;7.552;2024-02-23T12:23:18;3.85;;;0.50;;
53253;SDS011;75200;53.048;7.552;2024-02-23T12:26:05;3.35;;;0.60;;
53253;SDS011;75200;53.048;7.552;2024-02-23T12:28:30;4.38;;;0.70;;
53253;SDS011;75200;53.048;7.552;2024-02-23T12:31:01;4.45;;;0.47;;
53253;SDS011;75200;53.048;7.552;2024-02-23T12:33:28;2.63;;;0.50;;
53253;SDS011;75200;53.048;7.552;2024-02-23T12:35:55;1.83;;;0.35;;
53253;SDS011;75200;53.048;7.552;2024-02-23T12:38:21;10.95;;;0.52;;
53253;SDS011;75200;53.048;7.552;2024-02-23T12:40:47;3.47;;;0.55;;
53253;SDS011;75200;53.048;7.552;2024-02-23T12:43:13;3.25;;;0.68;;
53253;SDS011;75200;53.048;7.552;2024-02-23T12:45:39;3.15;;;0.52;;
53253;SDS011;75200;53.048;7.552;2024-02-23T12:48:05;3.60;;;0.52;;
53253;SDS011;75200;53.048;7.552;2024-02-23T12:50:31;3.60;;;1.20;;
53253;SDS011;75200;53.048;7.552;2024-02-23T12:52:57;1.30;;;0.22;;
53253;SDS011;75200;53.048;7.552;2024-02-23T12:55:23;2.28;;;0.50;;
53253;SDS011;75200;53.048;7.552;2024-02-23T12:57:49;2.67;;;0.50;;
53253;SDS011;75200;53.048;7.552;2024-02-23T13:00:15;3.25;;;0.68;;
53253;SDS011;75200;53.048;7.552;2024-02-23T13:02:41;3.47;;;0.60;;
53253;SDS011;75200;53.048;7.552;2024-02-23T13:05:07;1.20;;;0.30;;
53253;SDS011;75200;53.048;7.552;2024-02-23T13:07:33;2.33;;;0.57;;
53253;SDS011;75200;53.048;7.552;2024-02-23T13:09:59;3.95;;;0.50;;
53253;SDS011;75200;53.048;7.552;2024-02-23T13:12:25;3.15;;;0.50;;
53253;SDS011;75200;53.048;7.552;2024-02-23T13:14:51;2.30;;;0.55;;
53253;SDS011;75200;53.048;7.552;2024-02-23T13:17:17;4.53;;;0.70;;
53253;SDS011;75200;53.048;7.552;2024-02-23T13:19:43;4.05;;;0.75;;
53253;SDS011;75200;53.048;7.552;2024-02-23T13:22:10;4.63;;;1.23;;
53253;SDS011;75200;53.048;7.552;2024-02-23T13:24:36;9.70;;;2.58;;
53253;SDS011;75200;53.048;7.552;2024-02-23T13:27:04;3.63;;;0.80;;
53253;SDS011;75200;53.048;7.552;2024-02-23T13:29:30;5.50;;;0.93;;
53253;SDS011;75200;53.048;7.552;2024-02-23T13:31:56;7.38;;;1.63;;
53253;SDS011;75200;53.048;7.552;2024-02-23T13:34:23;9.43;;;2.30;;
53253;SDS011;75200;53.048;7.552;2024-02-23T13:36:49;10.07;;;3.00;;
53253;SDS011;75200;53.048;7.552;2024-02-23T13:39:17;1.52;;;0.45;;
53253;SDS011;75200;53.048;7.552;2024-02-23T13:41:44;2.90;;;1.02;;
53253;SDS011;75200;53.048;7.552;2024-02-23T13:44:10;2.40;;;0.50;;
53253;SDS011;75200;53.048;7.552;2024-02-23T13:46:38;6.15;;;0.88;;
53253;SDS011;75200;53.048;7.552;2024-02-23T13:49:07;4.97;;;0.90;;
53253;SDS011;75200;53.048;7.552;2024-02-23T13:51:34;1.73;;;0.50;;
53253;SDS011;75200;53.048;7.552;2024-02-23T13:54:00;2.53;;;0.60;;
53253;SDS011;75200;53.048;7.552;2024-02-23T13:56:26;2.72;;;0.65;;
53253;SDS011;75200;53.048;7.552;2024-02-23T13:58:52;3.78;;;0.77;;
53253;SDS011;75200;53.048;7.552;2024-02-23T14:01:18;5.38;;;0.90;;
53253;SDS011;75200;53.048;7.552;2024-02-23T14:03:44;3.70;;;0.50;;
53253;SDS011;75200;53.048;7.552;2024-02-23T14:06:10;4.53;;;0.75;;
53253;SDS011;75200;53.048;7.552;2024-02-23T14:08:36;8.23;;;0.98;;
53253;SDS011;75200;53.048;7.552;2024-02-23T14:11:03;6.85;;;0.80;;
53253;SDS011;75200;53.048;7.552;2024-02-23T14:13:32;4.63;;;1.05;;
53253;SDS011;75200;53.048;7.552;2024-02-23T14:15:58;4.53;;;0.65;;
53253;SDS011;75200;53.048;7.552;2024-02-23T14:18:24;3.97;;;0.70;;
53253;SDS011;75200;53.048;7.552;2024-02-23T14:20:50;6.45;;;1.20;;
53253;SDS011;75200;53.048;7.552;2024-02-23T14:23:17;4.93;;;0.57;;
53253;SDS011;75200;53.048;7.552;2024-02-23T14:25:43;3.60;;;0.63;;
53253;SDS011;75200;53.048;7.552;2024-02-23T14:28:09;1.65;;;0.50;;
53253;SDS011;75200;53.048;7.552;2024-02-23T14:30:37;3.28;;;0.73;;
53253;SDS011;75200;53.048;7.552;2024-02-23T14:33:03;3.95;;;1.02;;
53253;SDS011;75200;53.048;7.552;2024-02-23T14:35:29;2.15;;;0.70;;
53253;SDS011;75200;53.048;7.552;2024-02-23T14:37:55;4.00;;;0.88;;
53253;SDS011;75200;53.048;7.552;2024-02-23T14:40:21;4.68;;;0.93;;
53253;SDS011;75200;53.048;7.552;2024-02-23T14:42:47;5.90;;;0.80;;
53253;SDS011;75200;53.048;7.552;2024-02-23T14:45:13;6.03;;;0.85;;
53253;SDS011;75200;53.048;7.552;2024-02-23T14:47:41;3.25;;;0.52;;
53253;SDS011;75200;53.048;7.552;2024-02-23T14:50:09;7.28;;;0.70;;